Time;durP1;ratioP1;P1;durP2;ratioP2;P2;SDS_P1;SDS_P2;PMS_P1;PMS_P2;Temp;Humidity;BMP_temperature;BMP_pressure;BME280_temperature;BME280_humidity;BME280_pressure;Samples;Min_cycle;Max_cycle;Signal;HPM_P1;HPM_P2
2022/01/23 00:01:51;;;;;;;15.27;9.13;;;6.30;99.90;;;;;;5052391;28;20451;-71
2022/01/23 00:04:17;;;;;;;19.13;10.17;;;6.30;99.90;;;;;;5053844;28;20472;-69
2022/01/23 00:06:45;;;;;;;17.10;10.63;;;6.30;99.90;;;;;;5062109;28;20492;-70
2022/01/23 00:09:14;;;;;;;10.23;7.07;;;6.30;99.90;;;;;;5063463;28;20843;-70
2022/01/23 00:11:47;;;;;;;16.23;9.80;;;6.30;99.90;;;;;;5063162;28;20461;-70
2022/01/23 00:19:41;;;;;;;13.20;7.10;;;6.30;99.90;;;;;;5044482;28;20455;-69
2022/01/23 00:22:09;;;;;;;15.13;8.00;;;6.30;99.90;;;;;;5030609;28;20493;-69
2022/01/23 00:30:24;;;;;;;13.27;7.57;;;6.20;99.90;;;;;;5040978;28;20461;-70
2022/01/23 00:32:51;;;;;;;13.20;8.17;;;6.30;99.90;;;;;;5032022;28;20446;-70
2022/01/23 00:35:17;;;;;;;14.70;8.70;;;6.30;99.90;;;;;;5051260;28;20541;-69
2022/01/23 00:37:44;;;;;;;17.13;9.00;;;6.30;99.90;;;;;;5044896;28;20474;-70
2022/01/23 00:40:10;;;;;;;18.50;9.80;;;6.30;99.90;;;;;;5040450;28;20444;-69
2022/01/23 00:42:37;;;;;;;14.33;8.83;;;6.20;99.90;;;;;;5033813;28;20798;-70
2022/01/23 00:45:28;;;;;;;19.87;10.97;;;6.20;99.90;;;;;;5067215;28;20466;-69
2022/01/23 00:47:53;;;;;;;16.30;8.80;;;6.20;99.90;;;;;;5051309;28;20947;-70
2022/01/23 00:50:19;;;;;;;17.47;10.60;;;6.20;99.90;;;;;;5049892;28;20522;-69
2022/01/23 00:52:44;;;;;;;26.47;10.90;;;6.20;99.90;;;;;;5041281;28;20608;-69
2022/01/23 00:55:10;;;;;;;17.10;9.53;;;6.20;99.90;;;;;;5044243;28;20223;-70
2022/01/23 00:57:36;;;;;;;17.70;9.47;;;6.20;99.90;;;;;;5069231;28;20230;-69
2022/01/23 01:00:04;;;;;;;15.97;8.47;;;6.20;99.90;;;;;;5071615;28;20271;-70
2022/01/23 01:02:30;;;;;;;16.27;9.03;;;6.20;99.90;;;;;;5053959;28;20219;-70
2022/01/23 01:04:55;;;;;;;23.07;9.90;;;6.20;99.90;;;;;;5068399;28;20533;-70
2022/01/23 01:07:21;;;;;;;16.77;9.53;;;6.20;99.90;;;;;;5054259;28;20273;-70
2022/01/23 01:09:50;;;;;;;20.43;10.10;;;6.30;99.90;;;;;;5069564;28;20211;-71
2022/01/23 01:12:20;;;;;;;17.20;9.40;;;6.20;99.90;;;;;;5045672;28;20247;-70
2022/01/23 01:31:05;;;;;;;16.83;8.17;;;6.20;99.90;;;;;;5049007;28;20490;-70
2022/01/23 01:36:29;;;;;;;16.33;9.07;;;6.30;99.90;;;;;;5052673;28;20871;-68
2022/01/23 01:39:00;;;;;;;18.23;9.80;;;6.30;99.90;;;;;;5050471;28;21005;-70
2022/01/23 01:41:27;;;;;;;17.50;10.00;;;6.30;99.90;;;;;;5069322;28;20453;-69
2022/01/23 01:43:54;;;;;;;22.60;10.87;;;6.30;99.90;;;;;;5068491;28;20287;-70
2022/01/23 01:46:30;;;;;;;16.80;10.20;;;6.30;99.90;;;;;;5068939;28;20583;-70
2022/01/23 01:48:57;;;;;;;16.23;8.50;;;6.30;99.90;;;;;;5067914;28;20465;-69
2022/01/23 01:51:24;;;;;;;20.20;9.93;;;6.30;99.90;;;;;;5055221;28;20947;-69
2022/01/23 01:54:10;;;;;;;18.50;8.70;;;6.30;99.90;;;;;;5062082;28;20485;-69
2022/01/23 01:56:48;;;;;;;19.53;10.93;;;6.30;99.90;;;;;;5048371;28;20458;-69
2022/01/23 01:59:32;;;;;;;20.00;10.40;;;6.30;99.90;;;;;;5047338;28;20469;-68
2022/01/23 02:10:36;;;;;;;19.63;10.07;;;6.30;99.90;;;;;;5060642;28;20442;-70
2022/01/23 02:13:09;;;;;;;;;;;;;;;;;;;;;
2022/01/23 02:15:48;;;;;;;20.97;11.50;;;6.30;99.90;;;;;;5048244;28;20539;-69
2022/01/23 02:55:15;;;;;;;19.40;9.37;;;6.30;99.90;;;;;;5039254;28;20542;-70
2022/01/23 03:00:18;;;;;;;21.57;10.50;;;6.30;99.90;;;;;;5056450;28;20441;-70
2022/01/23 03:03:15;;;;;;;18.70;10.00;;;6.20;99.90;;;;;;5054925;28;20478;-70
2022/01/23 03:11:32;;;;;;;20.40;10.20;;;6.30;99.90;;;;;;5031440;28;20459;-68
2022/01/23 03:14:12;;;;;;;20.60;9.27;;;6.30;99.90;;;;;;5038699;28;20450;-70
2022/01/23 03:24:52;;;;;;;17.30;9.63;;;6.20;99.90;;;;;;5051763;28;20476;-69
2022/01/23 03:27:52;;;;;;;23.30;11.10;;;6.20;99.90;;;;;;5054404;28;20460;-70
2022/01/23 03:30:21;;;;;;;20.10;10.40;;;6.30;99.90;;;;;;5070264;28;20488;-70
2022/01/23 03:32:49;;;;;;;19.67;11.07;;;6.30;99.90;;;;;;5063641;28;21008;-70
2022/01/23 03:35:17;;;;;;;17.37;10.33;;;6.20;99.90;;;;;;5067719;28;20458;-69
2022/01/23 03:37:43;;;;;;;21.57;10.23;;;6.20;99.90;;;;;;5034876;28;20470;-71
2022/01/23 03:40:09;;;;;;;24.33;11.30;;;6.20;99.90;;;;;;5033876;28;20452;-69
2022/01/23 03:42:38;;;;;;;21.37;11.43;;;6.20;99.90;;;;;;5052563;28;20508;-70
2022/01/23 03:45:31;;;;;;;;;;;;;;;;;;;;;
2022/01/23 03:47:38;;;;;;;25.37;11.87;;;6.20;99.90;;;;;;5050579;28;20465;-70
2022/01/23 03:50:10;;;;;;;23.33;10.77;;;6.20;99.90;;;;;;5034241;28;20449;-71
2022/01/23 03:52:39;;;;;;;22.00;11.90;;;6.20;99.90;;;;;;5032518;28;20465;-71
2022/01/23 03:55:07;;;;;;;20.87;10.47;;;6.20;99.90;;;;;;5045911;28;20450;-71
2022/01/23 03:57:34;;;;;;;21.20;10.97;;;6.20;99.90;;;;;;5034419;28;20497;-70
2022/01/23 04:00:02;;;;;;;21.90;10.70;;;6.20;99.90;;;;;;5035254;28;20470;-70
2022/01/23 04:02:28;;;;;;;22.57;9.93;;;6.20;99.90;;;;;;5070959;28;20850;-70
2022/01/23 04:04:54;;;;;;;20.70;10.67;;;6.20;99.90;;;;;;5060275;28;20454;-70
2022/01/23 04:07:27;;;;;;;23.07;11.97;;;6.10;99.90;;;;;;5058472;28;20300;-70
2022/01/23 04:09:54;;;;;;;24.33;10.43;;;6.10;99.90;;;;;;5033879;28;20454;-69
2022/01/23 04:13:12;;;;;;;18.07;8.93;;;6.20;99.90;;;;;;5033371;28;20592;-69
2022/01/23 04:15:39;;;;;;;25.77;11.00;;;6.20;99.90;;;;;;5040846;28;20446;-70
2022/01/23 04:21:05;;;;;;;23.90;12.00;;;6.20;99.90;;;;;;5029441;28;20459;-69
2022/01/23 04:32:58;;;;;;;16.10;9.47;;;6.10;99.90;;;;;;5050319;28;20466;-69
2022/01/23 04:45:31;;;;;;;;;;;;;;;;;;;;;
2022/01/23 05:01:42;;;;;;;;;;;;;;;;;;;;;
2022/01/23 05:04:14;;;;;;;22.07;10.40;;;6.10;99.90;;;;;;5049051;28;20474;-69
2022/01/23 05:07:09;;;;;;;16.27;9.47;;;6.10;99.90;;;;;;5046136;28;20458;-69
2022/01/23 05:09:58;;;;;;;15.60;10.10;;;6.10;99.90;;;;;;5049171;28;20455;-71
2022/01/23 05:12:35;;;;;;;19.33;8.93;;;6.20;99.90;;;;;;5049011;28;20458;-69
2022/01/23 05:15:01;;;;;;;17.27;9.57;;;6.10;99.90;;;;;;5050459;28;20876;-70
2022/01/23 05:17:27;;;;;;;16.97;9.30;;;6.10;99.90;;;;;;5040085;28;20223;-70
2022/01/23 05:19:53;;;;;;;16.43;8.97;;;6.10;99.90;;;;;;5049131;28;20467;-70
2022/01/23 05:25:00;;;;;;;25.13;10.37;;;6.10;99.90;;;;;;5048119;28;20482;-69
2022/01/23 05:27:30;;;;;;;18.83;9.00;;;6.10;99.90;;;;;;5054171;28;20458;-70
2022/01/23 05:29:58;;;;;;;23.53;10.10;;;6.10;99.90;;;;;;5059376;28;20564;-69
2022/01/23 05:32:26;;;;;;;16.20;8.97;;;6.10;99.90;;;;;;5057032;28;20455;-69
2022/01/23 05:34:51;;;;;;;19.93;9.90;;;6.10;99.90;;;;;;5057541;28;20466;-70
2022/01/23 05:37:23;;;;;;;22.63;8.87;;;6.10;99.90;;;;;;5036394;28;20446;-70
2022/01/23 05:39:48;;;;;;;22.00;9.87;;;6.00;99.90;;;;;;5032333;28;20443;-69
2022/01/23 05:42:14;;;;;;;16.07;8.47;;;6.00;99.90;;;;;;5049471;28;20231;-69
2022/01/23 05:44:42;;;;;;;15.73;8.83;;;6.00;99.90;;;;;;5061229;28;20680;-69
2022/01/23 05:47:10;;;;;;;14.60;7.47;;;6.10;99.90;;;;;;5048097;28;20443;-70
2022/01/23 05:49:47;;;;;;;17.23;8.23;;;6.10;99.90;;;;;;5048453;28;20453;-71
2022/01/23 05:52:45;;;;;;;14.47;8.00;;;6.10;99.90;;;;;;5043068;28;20447;-70
2022/01/23 05:55:40;;;;;;;13.30;6.70;;;6.10;99.90;;;;;;5028352;28;20458;-70
2022/01/23 05:58:11;;;;;;;13.97;7.73;;;6.10;99.90;;;;;;5054016;28;20533;-69
2022/01/23 06:00:41;;;;;;;15.03;8.60;;;6.10;99.90;;;;;;5050033;28;20533;-69
2022/01/23 06:03:13;;;;;;;16.77;8.83;;;6.20;99.90;;;;;;5054828;28;20442;-70
2022/01/23 06:05:51;;;;;;;17.17;8.57;;;6.20;99.90;;;;;;5045234;28;20549;-70
2022/01/23 06:08:23;;;;;;;15.27;8.70;;;6.20;99.90;;;;;;5047354;28;20470;-69
2022/01/23 06:11:07;;;;;;;16.47;8.60;;;6.20;99.90;;;;;;5031839;28;20446;-69
2022/01/23 06:13:35;;;;;;;19.17;8.40;;;6.20;99.90;;;;;;5032162;28;20451;-69
2022/01/23 06:16:02;;;;;;;16.57;8.30;;;6.20;99.90;;;;;;5048026;28;20470;-70
2022/01/23 06:18:28;;;;;;;16.27;9.67;;;6.20;99.90;;;;;;5031155;28;20492;-70
2022/01/23 06:21:18;;;;;;;13.27;7.97;;;6.20;99.90;;;;;;5049419;28;20504;-69
2022/01/23 06:27:03;;;;;;;18.80;8.40;;;6.20;99.90;;;;;;5034863;28;20991;-69
2022/01/23 06:29:32;;;;;;;19.20;9.53;;;6.20;99.90;;;;;;5047843;28;20458;-70
2022/01/23 06:32:00;;;;;;;19.50;9.57;;;6.10;99.90;;;;;;5031582;28;20518;-70
2022/01/23 06:34:26;;;;;;;21.27;9.80;;;6.10;99.90;;;;;;5047091;28;20306;-70
2022/01/23 06:36:53;;;;;;;14.50;7.50;;;6.10;99.90;;;;;;5055960;28;20464;-71
2022/01/23 06:39:21;;;;;;;19.23;10.30;;;6.10;99.90;;;;;;5056732;28;20478;-69
2022/01/23 06:41:50;;;;;;;15.03;8.77;;;6.10;99.90;;;;;;5056961;28;20453;-69
2022/01/23 06:44:34;;;;;;;12.63;7.83;;;6.10;99.90;;;;;;5061704;28;20457;-70
2022/01/23 06:47:00;;;;;;;15.67;7.90;;;6.10;99.90;;;;;;5061444;28;20454;-71
2022/01/23 06:49:26;;;;;;;19.67;10.57;;;6.10;99.90;;;;;;5044195;28;20445;-69
2022/01/23 06:51:53;;;;;;;21.70;10.90;;;6.10;99.90;;;;;;5043218;28;20217;-70
2022/01/23 06:54:20;;;;;;;18.47;9.37;;;6.10;99.90;;;;;;5051966;28;20458;-69
2022/01/23 06:56:46;;;;;;;21.57;9.47;;;6.10;99.90;;;;;;5034877;28;20489;-69
2022/01/23 06:59:12;;;;;;;21.90;9.20;;;6.00;99.90;;;;;;5050538;28;20462;-69
2022/01/23 07:01:43;;;;;;;16.63;8.83;;;6.00;99.90;;;;;;5051134;28;20467;-69
2022/01/23 07:04:27;;;;;;;16.93;8.60;;;6.00;99.90;;;;;;5053253;28;20492;-70
2022/01/23 07:06:53;;;;;;;19.10;8.40;;;6.00;99.90;;;;;;5052654;28;20897;-70
2022/01/23 07:09:39;;;;;;;11.97;6.87;;;6.00;99.90;;;;;;5021854;28;20220;-70
2022/01/23 07:12:22;;;;;;;16.73;8.07;;;6.00;99.90;;;;;;5055895;28;20445;-69
2022/01/23 07:14:50;;;;;;;14.80;7.50;;;6.00;99.90;;;;;;5054304;28;20450;-70
2022/01/23 07:17:39;;;;;;;12.80;7.70;;;6.00;99.90;;;;;;5051898;28;20466;-70
2022/01/23 07:20:15;;;;;;;12.40;7.37;;;6.00;99.90;;;;;;5036216;28;20462;-70
2022/01/23 07:22:41;;;;;;;16.93;7.47;;;6.00;99.90;;;;;;5051714;28;20541;-69
2022/01/23 07:25:07;;;;;;;18.50;8.83;;;6.10;99.90;;;;;;5051189;28;20223;-71
2022/01/23 07:27:38;;;;;;;18.97;8.43;;;6.10;99.90;;;;;;5050915;28;20215;-70
2022/01/23 07:30:20;;;;;;;17.23;9.00;;;6.10;99.90;;;;;;5034612;28;20451;-69
2022/01/23 07:32:46;;;;;;;16.70;8.87;;;6.10;99.90;;;;;;5035069;28;20998;-71
2022/01/23 07:35:12;;;;;;;16.43;8.37;;;6.10;99.90;;;;;;5051150;28;20449;-70
2022/01/23 07:37:38;;;;;;;16.53;8.13;;;6.00;99.90;;;;;;5029266;28;20224;-70
2022/01/23 07:40:21;;;;;;;15.53;7.53;;;6.00;99.90;;;;;;5049426;28;20451;-70
2022/01/23 07:42:51;;;;;;;18.03;9.70;;;6.00;99.90;;;;;;5068579;28;21005;-69
2022/01/23 07:45:46;;;;;;;17.07;9.13;;;6.00;99.90;;;;;;5001261;28;20450;-70
2022/01/23 07:48:30;;;;;;;19.93;9.13;;;6.00;99.90;;;;;;5054338;28;20489;-70
2022/01/23 07:51:01;;;;;;;21.03;9.73;;;6.00;99.90;;;;;;5059175;28;20450;-70
2022/01/23 07:53:38;;;;;;;15.43;8.20;;;6.00;99.90;;;;;;5035925;28;20458;-70
2022/01/23 07:56:06;;;;;;;17.70;8.27;;;6.00;99.90;;;;;;5033328;28;20854;-70
2022/01/23 07:58:46;;;;;;;15.80;8.33;;;6.00;99.90;;;;;;5029456;28;20462;-69
2022/01/23 08:01:25;;;;;;;18.83;8.97;;;6.00;99.90;;;;;;5067668;28;20458;-69
2022/01/23 08:04:10;;;;;;;15.53;8.47;;;6.00;99.90;;;;;;5058589;28;20786;-70
2022/01/23 08:06:45;;;;;;;18.20;9.03;;;6.00;99.90;;;;;;5050857;28;20476;-69
2022/01/23 08:09:31;;;;;;;16.03;8.10;;;6.00;99.90;;;;;;5010730;28;20231;-70
2022/01/23 08:11:57;;;;;;;14.80;7.70;;;5.90;99.90;;;;;;5049426;28;20458;-70
2022/01/23 08:14:22;;;;;;;22.87;9.67;;;6.00;99.90;;;;;;5048820;28;20641;-70
2022/01/23 08:16:48;;;;;;;17.30;9.17;;;6.00;99.90;;;;;;5051241;28;20228;-70
2022/01/23 08:19:14;;;;;;;17.67;8.33;;;6.00;99.90;;;;;;5050361;28;20259;-70
2022/01/23 08:21:40;;;;;;;22.10;10.90;;;6.00;99.90;;;;;;5050909;28;20303;-69
2022/01/23 08:24:05;;;;;;;20.40;9.77;;;6.00;99.90;;;;;;5060962;28;20315;-70
2022/01/23 08:26:31;;;;;;;20.40;10.50;;;5.90;99.90;;;;;;5063410;28;20302;-70
2022/01/23 08:28:57;;;;;;;18.93;9.30;;;5.90;99.90;;;;;;5051302;28;20481;-70
2022/01/23 08:31:23;;;;;;;16.80;7.40;;;5.90;99.90;;;;;;5058473;28;20650;-70
2022/01/23 08:33:48;;;;;;;17.30;8.90;;;5.90;99.90;;;;;;5051170;28;20273;-70
2022/01/23 08:36:15;;;;;;;20.10;8.47;;;5.90;99.90;;;;;;5049407;28;20216;-70
2022/01/23 08:38:41;;;;;;;18.90;9.77;;;5.90;99.90;;;;;;5032837;28;20228;-69
2022/01/23 08:43:51;;;;;;;16.93;8.60;;;5.90;99.90;;;;;;5050121;28;20481;-70
2022/01/23 08:46:18;;;;;;;18.40;9.13;;;5.90;99.90;;;;;;5049044;28;20446;-70
2022/01/23 08:48:44;;;;;;;17.77;9.50;;;5.90;99.90;;;;;;5049635;28;20713;-70
2022/01/23 08:51:11;;;;;;;17.30;9.90;;;5.90;99.90;;;;;;5049607;28;20458;-70
2022/01/23 08:53:37;;;;;;;18.53;9.57;;;5.90;99.90;;;;;;5056044;28;21019;-70
2022/01/23 08:56:04;;;;;;;24.07;11.57;;;5.90;99.90;;;;;;5041899;28;20455;-70
2022/01/23 08:58:29;;;;;;;20.90;11.07;;;5.90;99.90;;;;;;5049803;28;20470;-70
2022/01/23 09:00:55;;;;;;;21.80;12.20;;;5.90;99.90;;;;;;5056981;28;20850;-70
2022/01/23 09:03:21;;;;;;;20.80;10.10;;;5.90;99.90;;;;;;5039637;28;20223;-69
2022/01/23 09:05:47;;;;;;;19.40;10.93;;;5.90;99.90;;;;;;5048959;28;20451;-69
2022/01/23 09:08:13;;;;;;;18.63;9.83;;;5.90;99.90;;;;;;5040516;28;20242;-69
2022/01/23 09:10:52;;;;;;;19.73;9.53;;;6.00;99.90;;;;;;5050248;28;20220;-69
2022/01/23 09:13:39;;;;;;;20.93;8.67;;;6.00;99.90;;;;;;5068903;28;20593;-70
2022/01/23 09:16:06;;;;;;;16.00;8.70;;;6.00;99.90;;;;;;5041692;28;20465;-70
2022/01/23 09:18:33;;;;;;;18.60;9.47;;;6.00;99.90;;;;;;5049778;28;20549;-70
2022/01/23 09:20:59;;;;;;;18.73;9.57;;;6.00;99.90;;;;;;5048354;28;20524;-70
2022/01/23 09:23:25;;;;;;;18.60;9.23;;;6.00;99.90;;;;;;5049106;28;20446;-70
2022/01/23 09:25:51;;;;;;;18.23;8.83;;;6.00;99.90;;;;;;5051342;28;20447;-69
2022/01/23 09:28:19;;;;;;;14.63;8.90;;;6.00;99.90;;;;;;5020637;28;20817;-70
2022/01/23 09:30:50;;;;;;;19.33;9.63;;;6.00;99.90;;;;;;5029240;28;20470;-70
2022/01/23 09:33:17;;;;;;;15.47;8.20;;;6.00;99.90;;;;;;5028738;28;20462;-69
2022/01/23 09:35:43;;;;;;;14.10;7.70;;;6.00;99.90;;;;;;5029918;28;20472;-69
2022/01/23 09:38:09;;;;;;;17.30;8.80;;;6.00;99.90;;;;;;5031083;28;20495;-69
2022/01/23 09:40:41;;;;;;;17.37;8.43;;;6.00;99.90;;;;;;5039088;28;20211;-69
2022/01/23 09:43:19;;;;;;;16.57;9.50;;;6.00;99.90;;;;;;5050572;28;20228;-69
2022/01/23 09:45:52;;;;;;;19.57;8.90;;;6.00;99.90;;;;;;5046783;28;20524;-70
2022/01/23 09:48:18;;;;;;;16.07;8.63;;;6.00;99.90;;;;;;5042983;28;20482;-69
2022/01/23 09:50:46;;;;;;;16.50;8.70;;;6.00;99.90;;;;;;5046194;28;20461;-70
2022/01/23 09:53:13;;;;;;;20.33;10.40;;;6.00;99.90;;;;;;5043386;28;20518;-69
2022/01/23 09:55:44;;;;;;;19.47;8.47;;;6.10;99.90;;;;;;5053564;28;20462;-70
2022/01/23 09:58:10;;;;;;;18.20;8.53;;;6.10;99.90;;;;;;5047600;28;20462;-69
2022/01/23 10:00:36;;;;;;;16.70;9.30;;;6.10;99.90;;;;;;5056719;28;20492;-69
2022/01/23 10:03:02;;;;;;;19.97;8.80;;;6.00;99.90;;;;;;5031797;28;20471;-70
2022/01/23 10:05:29;;;;;;;15.50;8.67;;;6.10;99.90;;;;;;5045043;28;20692;-69
2022/01/23 10:07:56;;;;;;;14.77;7.60;;;6.10;99.90;;;;;;5047652;28;20216;-70
2022/01/23 10:10:27;;;;;;;15.47;8.77;;;6.10;99.90;;;;;;5050872;28;20485;-69
2022/01/23 10:12:58;;;;;;;20.83;8.43;;;6.10;99.90;;;;;;5039611;28;20454;-70
2022/01/23 10:15:26;;;;;;;17.37;8.03;;;6.10;99.90;;;;;;5042329;28;20450;-69
2022/01/23 10:17:53;;;;;;;20.07;8.83;;;6.10;99.90;;;;;;5040929;28;20847;-70
2022/01/23 10:20:20;;;;;;;16.47;9.10;;;6.10;99.90;;;;;;5044776;28;20461;-68
2022/01/23 10:22:49;;;;;;;19.30;10.50;;;6.10;99.90;;;;;;5050534;28;20453;-69
2022/01/23 10:25:22;;;;;;;19.17;8.50;;;6.00;99.90;;;;;;5053603;28;20466;-70
2022/01/23 10:27:59;;;;;;;16.17;9.13;;;6.00;99.90;;;;;;5063764;28;20454;-71
2022/01/23 10:30:27;;;;;;;13.47;8.37;;;6.10;99.90;;;;;;5043264;28;20446;-69
2022/01/23 10:33:03;;;;;;;18.17;10.00;;;6.00;99.90;;;;;;5027960;28;20488;-70
2022/01/23 10:35:30;;;;;;;14.17;8.30;;;6.10;99.90;;;;;;5045220;28;20533;-69
2022/01/23 10:37:56;;;;;;;17.73;7.67;;;6.10;99.90;;;;;;5047683;28;20466;-69
2022/01/23 10:40:22;;;;;;;18.87;9.63;;;6.10;99.90;;;;;;5053531;28;20453;-69
2022/01/23 10:46:34;;;;;;;;;;;;;;;;;;;;;
2022/01/23 10:48:26;;;;;;;16.53;8.97;;;6.10;99.90;;;;;;5049733;28;20889;-69
2022/01/23 10:50:50;;;;;;;19.53;8.37;;;6.10;99.90;;;;;;5047011;28;20472;-69
2022/01/23 10:53:16;;;;;;;17.73;8.50;;;6.10;99.90;;;;;;5050739;28;20550;-69
2022/01/23 10:55:43;;;;;;;24.07;9.40;;;6.10;99.90;;;;;;5047803;28;20534;-69
2022/01/23 10:58:20;;;;;;;15.23;7.60;;;6.10;99.90;;;;;;5044293;28;20282;-69
2022/01/23 11:00:46;;;;;;;16.50;8.00;;;6.10;99.90;;;;;;5045345;28;20450;-70
2022/01/23 11:03:22;;;;;;;14.80;7.07;;;6.10;99.90;;;;;;5048592;28;20446;-69
2022/01/23 11:05:48;;;;;;;12.30;7.33;;;6.10;99.90;;;;;;5048597;28;20223;-70
2022/01/23 11:08:41;;;;;;;16.00;7.73;;;6.10;99.90;;;;;;5051338;28;20458;-69
2022/01/23 11:11:08;;;;;;;12.67;8.00;;;6.10;99.90;;;;;;5046740;28;20974;-70
2022/01/23 11:19:39;;;;;;;12.67;7.03;;;6.20;99.90;;;;;;5054070;28;20489;-70
2022/01/23 11:22:06;;;;;;;14.80;7.37;;;6.20;99.90;;;;;;5045312;28;20477;-69
2022/01/23 11:24:36;;;;;;;15.80;8.37;;;6.20;99.90;;;;;;5046853;28;20454;-69
2022/01/23 11:27:04;;;;;;;17.87;8.50;;;6.20;99.90;;;;;;5043604;28;20467;-69
2022/01/23 11:29:31;;;;;;;15.73;8.10;;;6.20;99.90;;;;;;5044892;28;20458;-69
2022/01/23 11:31:58;;;;;;;14.87;7.73;;;6.20;99.90;;;;;;5044432;28;20839;-69
2022/01/23 11:34:28;;;;;;;16.23;8.03;;;6.20;99.90;;;;;;5040285;28;20878;-70
2022/01/23 11:36:54;;;;;;;18.63;9.83;;;6.30;99.90;;;;;;5048303;28;20466;-70
2022/01/23 11:39:43;;;;;;;16.93;9.00;;;6.30;99.90;;;;;;5031705;28;20470;-69
2022/01/23 11:56:30;;;;;;;12.60;7.77;;;6.40;99.90;;;;;;5050328;28;20450;-70
2022/01/23 11:59:29;;;;;;;11.97;7.60;;;6.50;99.90;;;;;;5056039;28;20854;-70
2022/01/23 12:02:14;;;;;;;13.43;6.63;;;6.40;99.90;;;;;;5030059;28;20553;-69
2022/01/23 12:04:42;;;;;;;14.07;7.20;;;6.50;99.90;;;;;;5044975;28;20482;-69
2022/01/23 12:07:11;;;;;;;13.20;7.00;;;6.50;99.90;;;;;;5049696;28;20474;-70
2022/01/23 12:10:00;;;;;;;17.63;8.00;;;6.50;99.90;;;;;;5032368;28;20467;-69
2022/01/23 12:12:39;;;;;;;;;;;;;;;;;;;;;
2022/01/23 12:18:12;;;;;;;15.17;6.43;;;6.50;99.90;;;;;;5038457;28;20470;-69
2022/01/23 12:20:39;;;;;;;14.33;6.80;;;6.50;99.90;;;;;;5044448;28;20561;-69
2022/01/23 12:23:05;;;;;;;17.73;7.77;;;6.60;99.90;;;;;;5042687;28;20549;-69
2022/01/23 12:25:49;;;;;;;16.13;7.27;;;6.60;99.90;;;;;;5046255;28;20507;-69
2022/01/23 12:28:28;;;;;;;22.00;8.90;;;6.60;99.90;;;;;;5052864;28;20449;-70
2022/01/23 12:31:23;;;;;;;13.80;7.33;;;6.60;99.90;;;;;;5051195;28;20473;-69
2022/01/23 12:33:52;;;;;;;15.43;8.33;;;6.70;99.90;;;;;;5047420;28;20587;-69
2022/01/23 12:36:27;;;;;;;11.30;6.60;;;6.60;99.90;;;;;;5069042;28;20463;-69
2022/01/23 12:38:57;;;;;;;12.20;7.13;;;6.70;99.90;;;;;;5054886;28;20993;-70
2022/01/23 12:41:25;;;;;;;14.57;8.33;;;6.70;99.90;;;;;;5055509;28;20457;-70
2022/01/23 12:44:06;;;;;;;14.13;7.87;;;6.70;99.90;;;;;;5051198;28;20471;-71
2022/01/23 12:46:36;;;;;;;15.17;7.40;;;6.70;99.90;;;;;;5040996;28;20872;-69
2022/01/23 12:49:22;;;;;;;13.40;6.60;;;6.70;99.90;;;;;;5028482;28;21037;-69
2022/01/23 12:51:51;;;;;;;11.57;7.10;;;6.80;99.90;;;;;;5025955;28;20455;-71
2022/01/23 12:54:20;;;;;;;13.37;6.83;;;6.80;99.90;;;;;;5052693;28;21006;-68
2022/01/23 12:56:48;;;;;;;12.93;8.53;;;6.80;99.90;;;;;;5058156;28;20487;-69
2022/01/23 12:59:33;;;;;;;14.13;7.40;;;6.80;99.90;;;;;;5066072;28;20542;-70
2022/01/23 13:02:06;;;;;;;13.40;8.63;;;6.80;99.90;;;;;;5046335;28;20468;-70
2022/01/23 13:04:34;;;;;;;15.00;7.93;;;6.90;99.90;;;;;;5044776;28;20462;-69
2022/01/23 13:07:15;;;;;;;16.57;8.00;;;6.90;99.90;;;;;;5050642;28;20838;-69
2022/01/23 13:10:04;;;;;;;13.20;7.17;;;6.90;99.90;;;;;;5048880;28;20987;-71
2022/01/23 13:13:33;;;;;;;12.90;7.00;;;6.90;99.90;;;;;;5032501;28;20459;-69
2022/01/23 13:34:31;;;;;;;15.23;8.90;;;7.00;99.90;;;;;;5063356;28;20515;-69
2022/01/23 13:37:01;;;;;;;17.17;8.83;;;7.00;99.90;;;;;;5067117;28;20442;-70
2022/01/23 13:39:37;;;;;;;18.20;8.70;;;7.00;99.90;;;;;;5062429;28;20465;-69
2022/01/23 13:42:35;;;;;;;19.90;8.83;;;7.10;99.90;;;;;;5067881;28;20500;-69
2022/01/23 13:59:44;;;;;;;20.77;10.30;;;7.10;99.90;;;;;;5065873;28;20536;-69
2022/01/23 14:02:18;;;;;;;18.50;8.93;;;7.20;99.90;;;;;;5065765;28;20923;-69
2022/01/23 14:05:02;;;;;;;18.00;9.67;;;7.10;99.90;;;;;;5062451;28;20460;-69
2022/01/23 14:07:30;;;;;;;17.80;8.53;;;7.20;99.90;;;;;;5059256;28;20453;-71
2022/01/23 14:10:10;;;;;;;24.37;10.60;;;7.20;99.90;;;;;;5048634;28;20458;-70
2022/01/23 14:12:36;;;;;;;20.87;10.60;;;7.20;99.90;;;;;;5045854;28;20476;-70
2022/01/23 14:15:07;;;;;;;23.63;11.67;;;7.20;99.90;;;;;;5059227;28;20472;-69
2022/01/23 14:17:39;;;;;;;24.80;12.27;;;7.20;99.90;;;;;;5048020;28;20530;-71
2022/01/23 14:20:12;;;;;;;21.23;10.27;;;7.20;99.90;;;;;;5049864;28;20455;-69
2022/01/23 14:22:41;;;;;;;18.93;10.00;;;7.20;99.90;;;;;;5043315;28;20508;-69
2022/01/23 14:25:14;;;;;;;21.43;11.20;;;7.20;99.90;;;;;;5051298;28;20516;-70
2022/01/23 14:27:43;;;;;;;18.90;9.33;;;7.20;99.90;;;;;;5045515;28;20539;-69
2022/01/23 14:30:13;;;;;;;15.63;9.13;;;7.20;99.90;;;;;;5043507;28;20446;-69
2022/01/23 14:32:46;;;;;;;15.07;7.73;;;7.30;99.90;;;;;;5040915;28;20530;-70
2022/01/23 14:35:19;;;;;;;16.57;8.50;;;7.30;99.90;;;;;;5054030;28;20456;-69
2022/01/23 14:37:49;;;;;;;14.00;7.57;;;7.20;99.90;;;;;;5047597;28;20456;-70
2022/01/23 14:40:35;;;;;;;13.17;8.00;;;7.30;99.90;;;;;;5056031;28;20450;-69
2022/01/23 14:43:08;;;;;;;10.93;6.17;;;7.30;99.90;;;;;;5051560;28;20447;-70
2022/01/23 14:45:43;;;;;;;9.40;5.73;;;7.30;99.90;;;;;;5037318;28;20803;-70
2022/01/23 14:48:11;;;;;;;13.70;6.93;;;7.30;99.90;;;;;;5042633;28;20442;-69
2022/01/23 14:50:40;;;;;;;19.30;7.50;;;7.30;99.90;;;;;;5034653;28;21029;-70
2022/01/23 14:53:09;;;;;;;10.30;6.60;;;7.30;99.90;;;;;;5048771;28;20529;-70
2022/01/23 14:55:36;;;;;;;10.90;6.63;;;7.30;99.90;;;;;;5068181;28;20441;-70
2022/01/23 14:58:03;;;;;;;12.97;6.13;;;7.30;99.90;;;;;;5067592;28;20473;-71
2022/01/23 15:00:30;;;;;;;15.77;7.20;;;7.30;99.90;;;;;;5074239;28;20842;-69
2022/01/23 15:02:56;;;;;;;14.43;7.90;;;7.30;99.90;;;;;;5073547;28;20515;-70
2022/01/23 15:05:23;;;;;;;17.57;7.73;;;7.30;99.90;;;;;;5069323;28;20458;-69
2022/01/23 15:07:48;;;;;;;11.77;7.60;;;7.30;99.90;;;;;;5069586;28;20254;-69
2022/01/23 15:10:14;;;;;;;14.70;7.80;;;7.40;99.90;;;;;;5059978;28;20473;-70
2022/01/23 15:12:40;;;;;;;43.67;14.23;;;7.30;99.90;;;;;;5064351;28;20211;-69
2022/01/23 15:15:07;;;;;;;38.03;15.70;;;7.30;99.90;;;;;;5070905;28;20585;-70
2022/01/23 15:17:33;;;;;;;28.27;12.77;;;7.40;99.90;;;;;;5051771;28;20219;-69
2022/01/23 15:20:00;;;;;;;18.40;9.80;;;7.30;99.90;;;;;;5048915;28;20496;-71
2022/01/23 15:22:27;;;;;;;21.93;9.60;;;7.40;99.90;;;;;;5053162;28;20434;-70
2022/01/23 15:24:53;;;;;;;21.30;8.57;;;7.40;99.90;;;;;;5051708;28;20826;-70
2022/01/23 15:27:19;;;;;;;14.37;7.67;;;7.40;99.90;;;;;;5058619;28;20438;-70
2022/01/23 15:29:45;;;;;;;19.93;8.63;;;7.40;99.90;;;;;;5051798;28;20665;-70
2022/01/23 15:32:11;;;;;;;17.60;8.73;;;7.40;99.90;;;;;;5051385;28;20204;-70
2022/01/23 15:34:37;;;;;;;15.30;7.37;;;7.40;99.90;;;;;;5050321;28;20450;-70
2022/01/23 15:37:04;;;;;;;16.60;7.80;;;7.40;99.90;;;;;;5038958;28;20244;-70
2022/01/23 15:39:31;;;;;;;13.20;7.23;;;7.40;99.90;;;;;;5052112;28;20227;-70
2022/01/23 15:41:57;;;;;;;11.60;7.23;;;7.40;99.90;;;;;;5050946;28;20447;-69
2022/01/23 15:44:24;;;;;;;11.60;6.97;;;7.40;99.90;;;;;;5048400;28;20442;-71
2022/01/23 15:46:50;;;;;;;12.07;7.00;;;7.40;99.90;;;;;;5049823;28;20504;-69
2022/01/23 15:49:17;;;;;;;11.67;7.20;;;7.40;99.90;;;;;;5043176;28;20458;-70
2022/01/23 15:51:47;;;;;;;15.73;8.07;;;7.40;99.90;;;;;;5040259;28;20493;-70
2022/01/23 15:54:15;;;;;;;13.67;7.70;;;7.40;99.90;;;;;;5051517;28;20454;-69
2022/01/23 15:56:41;;;;;;;19.57;10.90;;;7.40;99.90;;;;;;5050948;28;20486;-69
2022/01/23 15:59:07;;;;;;;19.10;10.40;;;7.40;99.90;;;;;;5048645;28;20470;-69
2022/01/23 16:01:35;;;;;;;13.00;8.93;;;7.40;99.90;;;;;;5049691;28;20456;-70
2022/01/23 16:04:01;;;;;;;20.23;9.87;;;7.40;99.90;;;;;;5042473;28;20278;-69
2022/01/23 16:06:27;;;;;;;17.70;9.00;;;7.40;99.90;;;;;;5044475;28;20456;-69
2022/01/23 16:08:53;;;;;;;14.50;8.20;;;7.30;99.90;;;;;;5057998;28;20459;-69
2022/01/23 16:11:19;;;;;;;13.53;7.40;;;7.40;99.90;;;;;;5051579;28;20219;-69
2022/01/23 16:13:45;;;;;;;14.00;7.57;;;7.30;99.90;;;;;;5045025;28;20215;-71
2022/01/23 16:16:10;;;;;;;20.37;8.30;;;7.40;99.90;;;;;;5043581;28;20216;-68
2022/01/23 16:18:36;;;;;;;13.90;8.40;;;7.40;99.90;;;;;;5047508;28;20481;-70
2022/01/23 16:21:02;;;;;;;13.77;8.20;;;7.40;99.90;;;;;;5051355;28;20216;-69
2022/01/23 16:23:28;;;;;;;12.77;7.70;;;7.40;99.90;;;;;;5046910;28;20217;-70
2022/01/23 16:25:54;;;;;;;15.90;9.97;;;7.40;99.90;;;;;;5043446;28;20476;-71
2022/01/23 16:28:21;;;;;;;15.30;8.80;;;7.30;99.90;;;;;;5050410;28;20659;-70